createdAt,value
2023-10-11T05:14:32.481Z,82.20
2023-10-11T05:17:17.650Z,75.20
2023-10-11T05:20:17.266Z,72.45
2023-10-11T05:22:44.302Z,74.75
2023-10-11T05:25:31.761Z,78.73
2023-10-11T05:27:59.114Z,71.53
2023-10-11T05:30:26.279Z,67.07
2023-10-11T05:33:17.672Z,63.53
2023-10-11T05:35:48.861Z,57.80
2023-10-11T05:38:49.222Z,60.13
2023-10-11T05:41:55.481Z,57.67
2023-10-11T05:44:41.333Z,54.25
2023-10-11T05:47:34.923Z,51.22
2023-10-11T05:50:20.560Z,47.42
2023-10-11T05:52:47.958Z,49.77
2023-10-11T05:55:17.741Z,46.58
2023-10-11T05:57:46.065Z,44.75
2023-10-11T06:00:28.129Z,52.00
2023-10-11T06:02:55.915Z,50.13
2023-10-11T06:05:26.504Z,56.53
2023-10-11T06:08:04.932Z,48.67
2023-10-11T06:10:42.893Z,54.72
2023-10-11T06:13:15.190Z,56.47
2023-10-11T06:16:01.466Z,59.17
2023-10-11T06:18:44.218Z,52.30
2023-10-11T06:21:32.004Z,55.67
2023-10-11T06:24:01.333Z,60.13
2023-10-11T06:26:51.697Z,64.05
2023-10-11T06:29:25.682Z,61.83
2023-10-11T06:34:28.061Z,48.80
2023-10-11T06:36:57.257Z,50.53
2023-10-11T06:39:39.776Z,53.92
2023-10-11T06:42:16.108Z,46.85
2023-10-11T06:44:59.958Z,48.73
2023-10-11T06:47:37.891Z,46.67
2023-10-11T06:50:12.789Z,44.15
2023-10-11T06:52:47.392Z,43.70
2023-10-11T06:55:19.632Z,44.05
2023-10-11T06:57:53.697Z,44.70
2023-10-11T07:00:29.118Z,49.78
2023-10-11T07:03:11.511Z,45.20
2023-10-11T07:05:42.531Z,42.83
2023-10-11T07:08:11.370Z,60.50
2023-10-11T07:10:47.128Z,54.43
2023-10-11T07:13:35.015Z,54.88
2023-10-11T07:16:09.922Z,47.03
2023-10-11T07:18:41.360Z,53.78
2023-10-11T07:21:09.026Z,53.20
2023-10-11T07:23:52.291Z,46.57
2023-10-11T07:26:32.915Z,43.10
2023-10-11T07:29:03.236Z,52.00
2023-10-11T07:31:39.757Z,53.72
2023-10-11T07:34:08.324Z,48.15
2023-10-11T07:36:39.641Z,50.97
2023-10-11T07:39:22.021Z,47.33
2023-10-11T07:41:50.496Z,41.10
2023-10-11T07:44:21.022Z,43.38
2023-10-11T07:46:49.534Z,48.67
2023-10-11T07:49:24.444Z,43.87
2023-10-11T07:52:00.357Z,45.10
2023-10-11T07:54:28.884Z,39.22
2023-10-11T07:57:00.120Z,45.15
2023-10-11T07:59:29.016Z,45.25
2023-10-11T08:02:01.145Z,40.03
2023-10-11T08:04:31.475Z,42.10
2023-10-11T08:07:08.168Z,43.15
2023-10-11T08:09:46.991Z,40.88
2023-10-11T08:12:19.811Z,40.95
2023-10-11T08:14:47.753Z,42.07
2023-10-11T08:17:15.726Z,41.08
2023-10-11T08:19:48.617Z,43.35
2023-10-11T08:22:16.611Z,48.33
2023-10-11T08:24:49.521Z,45.92
2023-10-11T08:27:31.845Z,52.53
2023-10-11T08:30:20.911Z,54.17
2023-10-11T08:32:56.146Z,67.07
2023-10-11T08:35:33.159Z,77.32
2023-10-11T08:38:06.209Z,69.80
2023-10-11T08:40:38.552Z,72.23
2023-10-11T10:22:28.066Z,49.20
2023-10-11T10:25:22.734Z,46.38
2023-10-11T10:27:54.997Z,43.45
2023-10-11T10:30:28.590Z,46.63
2023-10-11T10:33:22.500Z,41.38
